sensor_id;sensor_type;location;lat;lon;timestamp;pressure;altitude;pressure_sealevel;temperature;humidity
42587;BME280;28216;53.362;-6.288;2023-04-06T00:00:18;101142.28;;;11.60;100.00
42587;BME280;28216;53.362;-6.288;2023-04-06T00:02:44;101139.81;;;11.58;100.00
42587;BME280;28216;53.362;-6.288;2023-04-06T00:05:09;101134.69;;;11.57;100.00
42587;BME280;28216;53.362;-6.288;2023-04-06T00:07:35;101132.91;;;11.57;100.00
42587;BME280;28216;53.362;-6.288;2023-04-06T00:10:01;101138.09;;;11.49;100.00
42587;BME280;28216;53.362;-6.288;2023-04-06T00:12:26;101134.81;;;11.47;100.00
42587;BME280;28216;53.362;-6.288;2023-04-06T00:14:52;101129.72;;;11.45;100.00
42587;BME280;28216;53.362;-6.288;2023-04-06T00:17:17;101135.44;;;11.41;100.00
42587;BME280;28216;53.362;-6.288;2023-04-06T00:19:43;101125.66;;;11.25;100.00
42587;BME280;28216;53.362;-6.288;2023-04-06T00:22:08;101130.91;;;11.25;100.00
42587;BME280;28216;53.362;-6.288;2023-04-06T00:24:33;101120.94;;;11.11;100.00
42587;BME280;28216;53.362;-6.288;2023-04-06T00:26:59;101126.50;;;11.08;100.00
42587;BME280;28216;53.362;-6.288;2023-04-06T00:29:25;101114.66;;;11.04;100.00
42587;BME280;28216;53.362;-6.288;2023-04-06T00:31:50;101117.75;;;10.99;100.00
42587;BME280;28216;53.362;-6.288;2023-04-06T00:34:16;101103.44;;;10.94;100.00
42587;BME280;28216;53.362;-6.288;2023-04-06T00:36:41;101103.91;;;10.89;100.00
42587;BME280;28216;53.362;-6.288;2023-04-06T00:39:07;101109.63;;;10.85;100.00
42587;BME280;28216;53.362;-6.288;2023-04-06T00:41:32;101101.38;;;10.79;100.00
42587;BME280;28216;53.362;-6.288;2023-04-06T00:43:58;101110.06;;;10.80;100.00
42587;BME280;28216;53.362;-6.288;2023-04-06T00:46:23;101116.81;;;10.82;100.00
42587;BME280;28216;53.362;-6.288;2023-04-06T00:48:49;101119.28;;;10.84;100.00
42587;BME280;28216;53.362;-6.288;2023-04-06T00:51:14;101127.91;;;10.76;100.00
42587;BME280;28216;53.362;-6.288;2023-04-06T00:53:40;101119.22;;;10.76;100.00
42587;BME280;28216;53.362;-6.288;2023-04-06T00:56:05;101116.53;;;10.68;100.00
42587;BME280;28216;53.362;-6.288;2023-04-06T00:58:31;101119.59;;;10.63;100.00
42587;BME280;28216;53.362;-6.288;2023-04-06T01:00:57;101112.25;;;10.67;100.00
42587;BME280;28216;53.362;-6.288;2023-04-06T01:03:23;101115.56;;;10.69;100.00
42587;BME280;28216;53.362;-6.288;2023-04-06T01:05:48;101111.59;;;10.65;100.00
42587;BME280;28216;53.362;-6.288;2023-04-06T01:08:14;101107.47;;;10.62;100.00
42587;BME280;28216;53.362;-6.288;2023-04-06T01:10:39;101119.91;;;10.60;100.00
42587;BME280;28216;53.362;-6.288;2023-04-06T01:13:05;101120.72;;;10.61;100.00
42587;BME280;28216;53.362;-6.288;2023-04-06T01:15:32;101131.81;;;10.55;100.00
42587;BME280;28216;53.362;-6.288;2023-04-06T01:17:58;101127.03;;;10.50;100.00
42587;BME280;28216;53.362;-6.288;2023-04-06T01:20:24;101127.19;;;10.48;100.00
42587;BME280;28216;53.362;-6.288;2023-04-06T01:22:49;101125.00;;;10.44;100.00
42587;BME280;28216;53.362;-6.288;2023-04-06T01:25:15;101120.88;;;10.41;100.00
42587;BME280;28216;53.362;-6.288;2023-04-06T01:27:40;101119.22;;;10.40;100.00
42587;BME280;28216;53.362;-6.288;2023-04-06T01:30:07;101123.91;;;10.37;100.00
42587;BME280;28216;53.362;-6.288;2023-04-06T01:32:32;101117.13;;;10.44;100.00
42587;BME280;28216;53.362;-6.288;2023-04-06T01:34:58;101119.59;;;10.45;100.00
42587;BME280;28216;53.362;-6.288;2023-04-06T01:37:23;101115.91;;;10.38;100.00
42587;BME280;28216;53.362;-6.288;2023-04-06T01:39:50;101107.53;;;10.35;100.00
42587;BME280;28216;53.362;-6.288;2023-04-06T01:42:15;101106.81;;;10.42;100.00
42587;BME280;28216;53.362;-6.288;2023-04-06T01:44:41;101108.13;;;10.29;100.00
42587;BME280;28216;53.362;-6.288;2023-04-06T01:47:06;101114.03;;;10.31;100.00
42587;BME280;28216;53.362;-6.288;2023-04-06T01:49:32;101112.75;;;10.35;100.00
42587;BME280;28216;53.362;-6.288;2023-04-06T01:51:57;101103.69;;;10.29;100.00
42587;BME280;28216;53.362;-6.288;2023-04-06T01:54:23;101100.69;;;10.24;100.00
42587;BME280;28216;53.362;-6.288;2023-04-06T01:56:48;101102.34;;;10.25;100.00
42587;BME280;28216;53.362;-6.288;2023-04-06T01:59:15;101102.66;;;10.22;100.00
42587;BME280;28216;53.362;-6.288;2023-04-06T02:01:41;101099.13;;;10.31;100.00
42587;BME280;28216;53.362;-6.288;2023-04-06T02:04:06;101091.63;;;10.36;100.00
42587;BME280;28216;53.362;-6.288;2023-04-06T02:06:31;101100.84;;;10.23;100.00
42587;BME280;28216;53.362;-6.288;2023-04-06T02:08:57;101099.88;;;10.24;100.00
42587;BME280;28216;53.362;-6.288;2023-04-06T02:11:22;101098.41;;;10.11;100.00
42587;BME280;28216;53.362;-6.288;2023-04-06T02:13:48;101099.91;;;10.14;100.00
42587;BME280;28216;53.362;-6.288;2023-04-06T02:16:13;101097.97;;;10.16;100.00
42587;BME280;28216;53.362;-6.288;2023-04-06T02:18:39;101097.56;;;10.21;100.00
42587;BME280;28216;53.362;-6.288;2023-04-06T02:21:05;101094.34;;;10.27;100.00
42587;BME280;28216;53.362;-6.288;2023-04-06T02:23:30;101086.31;;;10.28;100.00
42587;BME280;28216;53.362;-6.288;2023-04-06T02:25:56;101089.47;;;10.32;100.00
42587;BME280;28216;53.362;-6.288;2023-04-06T02:28:21;101095.31;;;10.26;100.00
42587;BME280;28216;53.362;-6.288;2023-04-06T02:30:47;101097.63;;;10.29;100.00
42587;BME280;28216;53.362;-6.288;2023-04-06T02:33:12;101090.16;;;10.34;100.00
42587;BME280;28216;53.362;-6.288;2023-04-06T02:35:37;101091.78;;;10.35;100.00
42587;BME280;28216;53.362;-6.288;2023-04-06T02:38:03;101090.53;;;10.39;100.00
42587;BME280;28216;53.362;-6.288;2023-04-06T02:40:28;101091.63;;;10.36;100.00
42587;BME280;28216;53.362;-6.288;2023-04-06T02:42:54;101088.72;;;10.39;100.00
42587;BME280;28216;53.362;-6.288;2023-04-06T02:45:19;101093.75;;;10.33;100.00
42587;BME280;28216;53.362;-6.288;2023-04-06T02:47:45;101090.16;;;10.34;100.00
42587;BME280;28216;53.362;-6.288;2023-04-06T02:50:10;101091.50;;;10.38;100.00
42587;BME280;28216;53.362;-6.288;2023-04-06T02:52:36;101099.22;;;10.39;100.00
42587;BME280;28216;53.362;-6.288;2023-04-06T02:55:01;101102.66;;;10.40;100.00
42587;BME280;28216;53.362;-6.288;2023-04-06T02:57:27;101096.47;;;10.41;100.00
42587;BME280;28216;53.362;-6.288;2023-04-06T02:59:52;101108.03;;;10.38;100.00
42587;BME280;28216;53.362;-6.288;2023-04-06T03:02:18;101097.41;;;10.40;100.00
42587;BME280;28216;53.362;-6.288;2023-04-06T03:04:44;101098.94;;;10.42;100.00
42587;BME280;28216;53.362;-6.288;2023-04-06T03:07:09;101102.13;;;10.36;100.00
42587;BME280;28216;53.362;-6.288;2023-04-06T03:09:37;101100.78;;;10.32;100.00
42587;BME280;28216;53.362;-6.288;2023-04-06T03:12:03;101102.66;;;10.22;100.00
42587;BME280;28216;53.362;-6.288;2023-04-06T03:14:28;101097.56;;;10.21;100.00
42587;BME280;28216;53.362;-6.288;2023-04-06T03:16:54;101101.53;;;10.25;100.00
42587;BME280;28216;53.362;-6.288;2023-04-06T03:19:19;101101.22;;;10.28;100.00
42587;BME280;28216;53.362;-6.288;2023-04-06T03:21:45;101103.69;;;10.29;100.00
42587;BME280;28216;53.362;-6.288;2023-04-06T03:24:10;101102.91;;;10.19;100.00
42587;BME280;28216;53.362;-6.288;2023-04-06T03:26:36;101104.28;;;10.23;100.00
42587;BME280;28216;53.362;-6.288;2023-04-06T03:29:01;101102.66;;;10.22;100.00
42587;BME280;28216;53.362;-6.288;2023-04-06T03:31:27;101097.81;;;10.17;100.00
42587;BME280;28216;53.362;-6.288;2023-04-06T03:33:52;101101.25;;;10.18;100.00
42587;BME280;28216;53.362;-6.288;2023-04-06T03:36:18;101098.63;;;10.18;100.00
42587;BME280;28216;53.362;-6.288;2023-04-06T03:38:43;101110.09;;;10.17;100.00
42587;BME280;28216;53.362;-6.288;2023-04-06T03:41:09;101103.41;;;10.05;100.00
42587;BME280;28216;53.362;-6.288;2023-04-06T03:43:35;101097.50;;;10.03;100.00
42587;BME280;28216;53.362;-6.288;2023-04-06T03:46:00;101100.84;;;9.95;100.00
42587;BME280;28216;53.362;-6.288;2023-04-06T03:48:26;101098.81;;;9.89;100.00
42587;BME280;28216;53.362;-6.288;2023-04-06T03:50:51;101109.72;;;9.84;100.00
42587;BME280;28216;53.362;-6.288;2023-04-06T03:53:17;101112.13;;;9.78;100.00
42587;BME280;28216;53.362;-6.288;2023-04-06T03:55:42;101108.22;;;9.82;100.00
42587;BME280;28216;53.362;-6.288;2023-04-06T03:58:07;101103.56;;;9.76;100.00
42587;BME280;28216;53.362;-6.288;2023-04-06T04:00:33;101114.06;;;9.76;100.00
42587;BME280;28216;53.362;-6.288;2023-04-06T04:02:58;101105.31;;;9.85;100.00
42587;BME280;28216;53.362;-6.288;2023-04-06T04:05:24;101107.47;;;9.72;100.00
42587;BME280;28216;53.362;-6.288;2023-04-06T04:07:51;101119.44;;;9.74;100.00
42587;BME280;28216;53.362;-6.288;2023-04-06T04:10:17;101118.91;;;9.61;100.00
42587;BME280;28216;53.362;-6.288;2023-04-06T04:12:42;101110.78;;;9.64;100.00
42587;BME280;28216;53.362;-6.288;2023-04-06T04:15:08;101111.47;;;9.66;100.00
42587;BME280;28216;53.362;-6.288;2023-04-06T04:17:33;101108.56;;;9.69;100.00
42587;BME280;28216;53.362;-6.288;2023-04-06T04:19:59;101107.22;;;9.55;100.00
42587;BME280;28216;53.362;-6.288;2023-04-06T04:22:24;101107.22;;;9.55;100.00
42587;BME280;28216;53.362;-6.288;2023-04-06T04:24:50;101101.16;;;9.55;100.00
42587;BME280;28216;53.362;-6.288;2023-04-06T04:27:15;101099.38;;;9.55;100.00
42587;BME280;28216;53.362;-6.288;2023-04-06T04:29:41;101095.34;;;9.61;100.00
42587;BME280;28216;53.362;-6.288;2023-04-06T04:32:08;101100.28;;;9.64;100.00
42587;BME280;28216;53.362;-6.288;2023-04-06T04:34:34;101105.53;;;9.64;100.00
42587;BME280;28216;53.362;-6.288;2023-04-06T04:36:59;101106.94;;;9.59;100.00
42587;BME280;28216;53.362;-6.288;2023-04-06T04:39:25;101113.81;;;9.60;100.00
42587;BME280;28216;53.362;-6.288;2023-04-06T04:41:50;101116.16;;;9.63;100.00
42587;BME280;28216;53.362;-6.288;2023-04-06T04:44:16;101121.25;;;9.64;100.00
42587;BME280;28216;53.362;-6.288;2023-04-06T04:46:41;101123.63;;;9.57;100.00
42587;BME280;28216;53.362;-6.288;2023-04-06T04:49:07;101136.13;;;9.64;100.00
42587;BME280;28216;53.362;-6.288;2023-04-06T04:51:32;101128.94;;;9.66;100.00
42587;BME280;28216;53.362;-6.288;2023-04-06T04:53:58;101132.13;;;9.69;100.00
42587;BME280;28216;53.362;-6.288;2023-04-06T04:56:24;101135.16;;;9.65;100.00
42587;BME280;28216;53.362;-6.288;2023-04-06T04:58:50;101138.06;;;9.62;100.00
42587;BME280;28216;53.362;-6.288;2023-04-06T05:01:16;101139.19;;;9.59;100.00
42587;BME280;28216;53.362;-6.288;2023-04-06T05:03:41;101132.72;;;9.53;100.00
42587;BME280;28216;53.362;-6.288;2023-04-06T05:06:06;101140.28;;;9.56;100.00
42587;BME280;28216;53.362;-6.288;2023-04-06T05:08:33;101144.97;;;9.53;100.00
42587;BME280;28216;53.362;-6.288;2023-04-06T05:10:58;101142.78;;;9.48;100.00
42587;BME280;28216;53.362;-6.288;2023-04-06T05:13:24;101139.63;;;9.45;100.00
42587;BME280;28216;53.362;-6.288;2023-04-06T05:15:49;101147.78;;;9.42;100.00
42587;BME280;28216;53.362;-6.288;2023-04-06T05:18:15;101149.44;;;9.33;100.00
42587;BME280;28216;53.362;-6.288;2023-04-06T05:20:42;101152.78;;;9.26;100.00
42587;BME280;28216;53.362;-6.288;2023-04-06T05:23:07;101160.75;;;9.24;100.00
42587;BME280;28216;53.362;-6.288;2023-04-06T05:25:33;101158.28;;;9.22;100.00
42587;BME280;28216;53.362;-6.288;2023-04-06T05:27:59;101157.47;;;9.22;100.00
42587;BME280;28216;53.362;-6.288;2023-04-06T05:30:24;101164.63;;;9.20;100.00
42587;BME280;28216;53.362;-6.288;2023-04-06T05:32:50;101160.09;;;9.22;100.00
42587;BME280;28216;53.362;-6.288;2023-04-06T05:35:16;101160.91;;;9.22;100.00
42587;BME280;28216;53.362;-6.288;2023-04-06T05:37:42;101160.19;;;9.30;100.00
42587;BME280;28216;53.362;-6.288;2023-04-06T05:40:08;101159.91;;;9.33;100.00
42587;BME280;28216;53.362;-6.288;2023-04-06T05:45:07;101163.50;;;9.32;100.00
42587;BME280;28216;53.362;-6.288;2023-04-06T05:47:32;101166.38;;;9.39;100.00
42587;BME280;28216;53.362;-6.288;2023-04-06T05:49:58;101163.47;;;9.42;100.00
42587;BME280;28216;53.362;-6.288;2023-04-06T05:52:23;101165.13;;;9.43;100.00
42587;BME280;28216;53.362;-6.288;2023-04-06T05:54:49;101170.25;;;9.35;100.00
42587;BME280;28216;53.362;-6.288;2023-04-06T05:57:15;101168.06;;;9.30;100.00
42587;BME280;28216;53.362;-6.288;2023-04-06T05:59:42;101170.81;;;9.29;100.00
42587;BME280;28216;53.362;-6.288;2023-04-06T06:02:07;101185.94;;;9.35;100.00
42587;BME280;28216;53.362;-6.288;2023-04-06T06:04:32;101183.47;;;9.33;100.00
42587;BME280;28216;53.362;-6.288;2023-04-06T06:06:58;101179.47;;;9.39;100.00
42587;BME280;28216;53.362;-6.288;2023-04-06T06:09:23;101181.41;;;9.37;100.00
42587;BME280;28216;53.362;-6.288;2023-04-06T06:11:49;101183.03;;;9.38;100.00
42587;BME280;28216;53.362;-6.288;2023-04-06T06:14:15;101191.03;;;9.36;100.00
42587;BME280;28216;53.362;-6.288;2023-04-06T06:16:40;101198.47;;;9.41;100.00
42587;BME280;28216;53.362;-6.288;2023-04-06T06:19:06;101193.91;;;9.43;100.00
42587;BME280;28216;53.362;-6.288;2023-04-06T06:21:31;101198.19;;;9.34;100.00
42587;BME280;28216;53.362;-6.288;2023-04-06T06:23:57;101195.44;;;9.36;100.00
42587;BME280;28216;53.362;-6.288;2023-04-06T06:26:22;101204.94;;;9.37;100.00
42587;BME280;28216;53.362;-6.288;2023-04-06T06:28:48;101212.94;;;9.35;100.00
42587;BME280;28216;53.362;-6.288;2023-04-06T06:31:13;101211.28;;;9.34;100.00
42587;BME280;28216;53.362;-6.288;2023-04-06T06:33:39;101214.31;;;9.30;100.00
42587;BME280;28216;53.362;-6.288;2023-04-06T06:36:05;101211.31;;;9.24;100.00
42587;BME280;28216;53.362;-6.288;2023-04-06T06:38:30;101209.66;;;9.23;100.00
42587;BME280;28216;53.362;-6.288;2023-04-06T06:40:56;101222.03;;;9.31;100.00
42587;BME280;28216;53.362;-6.288;2023-04-06T06:43:21;101216.25;;;9.28;100.00
42587;BME280;28216;53.362;-6.288;2023-04-06T06:45:47;101212.53;;;9.20;100.00
42587;BME280;28216;53.362;-6.288;2023-04-06T06:48:12;101217.91;;;9.29;100.00
42587;BME280;28216;53.362;-6.288;2023-04-06T06:50:38;101214.47;;;9.28;100.00
42587;BME280;28216;53.362;-6.288;2023-04-06T06:53:03;101215.00;;;9.32;100.00
42587;BME280;28216;53.362;-6.288;2023-04-06T06:55:29;101218.72;;;9.29;100.00
42587;BME280;28216;53.362;-6.288;2023-04-06T06:57:54;101225.63;;;9.30;100.00
42587;BME280;28216;53.362;-6.288;2023-04-06T07:00:20;101224.91;;;9.38;100.00
42587;BME280;28216;53.362;-6.288;2023-04-06T07:02:47;101221.19;;;9.40;100.00
42587;BME280;28216;53.362;-6.288;2023-04-06T07:05:12;101224.50;;;9.42;100.00
42587;BME280;28216;53.362;-6.288;2023-04-06T07:07:38;101233.84;;;9.54;100.00
42587;BME280;28216;53.362;-6.288;2023-04-06T07:10:03;101232.06;;;9.55;100.00
42587;BME280;28216;53.362;-6.288;2023-04-06T07:12:29;101231.47;;;9.61;100.00
42587;BME280;28216;53.362;-6.288;2023-04-06T07:14:55;101238.53;;;9.70;100.00
42587;BME280;28216;53.362;-6.288;2023-04-06T07:17:28;101233.56;;;9.67;100.00
42587;BME280;28216;53.362;-6.288;2023-04-06T07:19:53;101237.13;;;9.76;100.00
42587;BME280;28216;53.362;-6.288;2023-04-06T07:22:19;101237.84;;;9.68;100.00
42587;BME280;28216;53.362;-6.288;2023-04-06T07:24:44;101237.56;;;9.71;100.00
42587;BME280;28216;53.362;-6.288;2023-04-06T07:27:10;101241.97;;;9.71;100.00
42587;BME280;28216;53.362;-6.288;2023-04-06T07:29:38;101246.09;;;9.73;100.00
42587;BME280;28216;53.362;-6.288;2023-04-06T07:32:04;101255.47;;;9.56;100.00
42587;BME280;28216;53.362;-6.288;2023-04-06T07:34:29;101254.66;;;9.56;100.00
42587;BME280;28216;53.362;-6.288;2023-04-06T07:36:55;101253.56;;;9.49;100.00
42587;BME280;28216;53.362;-6.288;2023-04-06T07:39:22;101257.28;;;9.37;100.00
42587;BME280;28216;53.362;-6.288;2023-04-06T07:41:47;101259.34;;;9.43;100.00
42587;BME280;28216;53.362;-6.288;2023-04-06T07:44:12;101257.56;;;9.43;100.00
42587;BME280;28216;53.362;-6.288;2023-04-06T07:46:38;101260.16;;;9.53;100.00
42587;BME280;28216;53.362;-6.288;2023-04-06T07:49:03;101257.81;;;9.60;100.00
42587;BME280;28216;53.362;-6.288;2023-04-06T07:51:29;101257.41;;;9.74;100.00
42587;BME280;28216;53.362;-6.288;2023-04-06T07:53:54;101262.06;;;9.80;100.00
42587;BME280;28216;53.362;-6.288;2023-04-06T07:56:20;101258.47;;;9.81;100.00
42587;BME280;28216;53.362;-6.288;2023-04-06T07:58:46;101260.63;;;9.95;100.00
42587;BME280;28216;53.362;-6.288;2023-04-06T08:01:11;101262.66;;;10.11;100.00
42587;BME280;28216;53.362;-6.288;2023-04-06T08:03:37;101262.56;;;10.40;100.00
42587;BME280;28216;53.362;-6.288;2023-04-06T08:06:02;101251.78;;;10.70;100.00
42587;BME280;28216;53.362;-6.288;2023-04-06T08:08:28;101257.94;;;10.97;100.00
42587;BME280;28216;53.362;-6.288;2023-04-06T08:10:54;101260.94;;;11.02;100.00
42587;BME280;28216;53.362;-6.288;2023-04-06T08:13:20;101260.88;;;10.94;100.00
42587;BME280;28216;53.362;-6.288;2023-04-06T08:15:46;101267.81;;;10.85;100.00
42587;BME280;28216;53.362;-6.288;2023-04-06T08:18:12;101273.38;;;10.82;100.00
42587;BME280;28216;53.362;-6.288;2023-04-06T08:20:47;101271.34;;;10.76;100.00
42587;BME280;28216;53.362;-6.288;2023-04-06T08:27:37;101290.38;;;10.78;100.00
42587;BME280;28216;53.362;-6.288;2023-04-06T08:29:56;101282.59;;;10.86;100.00
42587;BME280;28216;53.362;-6.288;2023-04-06T08:32:21;101285.75;;;10.90;100.00
42587;BME280;28216;53.362;-6.288;2023-04-06T08:34:47;101279.91;;;10.96;100.00
42587;BME280;28216;53.362;-6.288;2023-04-06T08:37:12;101286.88;;;11.05;100.00
42587;BME280;28216;53.362;-6.288;2023-04-06T08:39:38;101286.38;;;11.19;100.00
42587;BME280;28216;53.362;-6.288;2023-04-06T08:42:03;101284.13;;;11.24;100.00
42587;BME280;28216;53.362;-6.288;2023-04-06T08:44:29;101284.13;;;11.42;100.00
42587;BME280;28216;53.362;-6.288;2023-04-06T08:46:57;101296.78;;;11.46;100.00
42587;BME280;28216;53.362;-6.288;2023-04-06T08:49:26;101300.31;;;11.55;100.00
42587;BME280;28216;53.362;-6.288;2023-04-06T08:51:52;101302.47;;;11.60;100.00
42587;BME280;28216;53.362;-6.288;2023-04-06T08:54:19;101297.66;;;11.73;100.00
42587;BME280;28216;53.362;-6.288;2023-04-06T08:56:45;101301.94;;;11.92;100.00
42587;BME280;28216;53.362;-6.288;2023-04-06T08:59:12;101309.72;;;12.01;100.00
42587;BME280;28216;53.362;-6.288;2023-04-06T09:01:40;101310.13;;;12.15;100.00
42587;BME280;28216;53.362;-6.288;2023-04-06T09:04:11;101314.81;;;12.03;100.00
42587;BME280;28216;53.362;-6.288;2023-04-06T09:06:39;101320.38;;;12.00;100.00
42587;BME280;28216;53.362;-6.288;2023-04-06T09:09:05;101314.00;;;12.02;100.00
42587;BME280;28216;53.362;-6.288;2023-04-06T09:11:45;101318.84;;;11.89;100.00
42587;BME280;28216;53.362;-6.288;2023-04-06T09:14:11;101334.22;;;11.84;100.00
42587;BME280;28216;53.362;-6.288;2023-04-06T09:16:41;101321.38;;;11.63;100.00
42587;BME280;28216;53.362;-6.288;2023-04-06T09:19:07;101332.41;;;11.85;100.00
42587;BME280;28216;53.362;-6.288;2023-04-06T09:21:33;101327.81;;;11.87;100.00
42587;BME280;28216;53.362;-6.288;2023-04-06T09:24:00;101339.44;;;12.02;100.00
42587;BME280;28216;53.362;-6.288;2023-04-06T09:26:26;101339.81;;;12.07;100.00
42587;BME280;28216;53.362;-6.288;2023-04-06T09:28:53;101350.56;;;12.22;100.00
42587;BME280;28216;53.362;-6.288;2023-04-06T09:31:29;101353.38;;;12.20;100.00
42587;BME280;28216;53.362;-6.288;2023-04-06T09:33:56;101350.16;;;12.08;100.00
42587;BME280;28216;53.362;-6.288;2023-04-06T09:36:30;101354.44;;;12.09;100.00
42587;BME280;28216;53.362;-6.288;2023-04-06T09:38:58;101358.09;;;12.17;100.00
42587;BME280;28216;53.362;-6.288;2023-04-06T09:41:29;101351.09;;;12.25;100.00
42587;BME280;28216;53.362;-6.288;2023-04-06T09:44:06;101367.28;;;12.13;100.00
42587;BME280;28216;53.362;-6.288;2023-04-06T09:46:41;101379.03;;;12.00;100.00
42587;BME280;28216;53.362;-6.288;2023-04-06T09:49:08;101374.22;;;11.78;100.00
42587;BME280;28216;53.362;-6.288;2023-04-06T09:51:45;101371.66;;;11.86;100.00
42587;BME280;28216;53.362;-6.288;2023-04-06T09:54:15;101367.78;;;11.90;100.00
42587;BME280;28216;53.362;-6.288;2023-04-06T09:59:13;101366.28;;;12.39;100.00
42587;BME280;28216;53.362;-6.288;2023-04-06T10:01:39;101374.06;;;12.75;100.00
42587;BME280;28216;53.362;-6.288;2023-04-06T10:06:49;101368.63;;;13.19;100.00
42587;BME280;28216;53.362;-6.288;2023-04-06T10:09:18;101370.84;;;13.48;100.00
42587;BME280;28216;53.362;-6.288;2023-04-06T10:11:45;101375.59;;;13.44;100.00
42587;BME280;28216;53.362;-6.288;2023-04-06T10:14:11;101379.44;;;13.16;100.00
42587;BME280;28216;53.362;-6.288;2023-04-06T10:16:37;101381.03;;;13.00;100.00
42587;BME280;28216;53.362;-6.288;2023-04-06T10:19:09;101378.72;;;12.97;100.00
42587;BME280;28216;53.362;-6.288;2023-04-06T10:21:38;101383.69;;;13.09;100.00
42587;BME280;28216;53.362;-6.288;2023-04-06T10:24:08;101379.00;;;13.20;100.00
42587;BME280;28216;53.362;-6.288;2023-04-06T10:26:40;101394.28;;;13.17;100.00
42587;BME280;28216;53.362;-6.288;2023-04-06T10:29:07;101396.16;;;12.90;100.00
42587;BME280;28216;53.362;-6.288;2023-04-06T10:31:39;101382.13;;;13.32;100.00
42587;BME280;28216;53.362;-6.288;2023-04-06T10:34:06;101398.25;;;13.29;100.00
42587;BME280;28216;53.362;-6.288;2023-04-06T10:36:32;101394.91;;;13.11;100.00
42587;BME280;28216;53.362;-6.288;2023-04-06T10:39:01;101402.84;;;13.19;100.00
42587;BME280;28216;53.362;-6.288;2023-04-06T10:41:45;101395.34;;;13.40;100.00
42587;BME280;28216;53.362;-6.288;2023-04-06T10:44:24;101405.19;;;13.30;100.00
42587;BME280;28216;53.362;-6.288;2023-04-06T10:46:57;101402.84;;;13.19;100.00
42587;BME280;28216;53.362;-6.288;2023-04-06T10:49:24;101402.97;;;13.09;100.00
42587;BME280;28216;53.362;-6.288;2023-04-06T10:51:56;101417.97;;;13.17;100.00
42587;BME280;28216;53.362;-6.288;2023-04-06T10:54:24;101421.56;;;13.16;100.00
42587;BME280;28216;53.362;-6.288;2023-04-06T10:56:50;101410.38;;;13.14;100.00
42587;BME280;28216;53.362;-6.288;2023-04-06T10:59:22;101412.06;;;13.23;100.00
42587;BME280;28216;53.362;-6.288;2023-04-06T11:01:48;101418.50;;;13.20;100.00
42587;BME280;28216;53.362;-6.288;2023-04-06T11:04:18;101408.78;;;13.21;100.00
42587;BME280;28216;53.362;-6.288;2023-04-06T11:06:49;101415.06;;;13.28;100.00
42587;BME280;28216;53.362;-6.288;2023-04-06T11:11:51;101417.78;;;13.77;100.00
42587;BME280;28216;53.362;-6.288;2023-04-06T11:14:17;101419.59;;;14.00;100.00
42587;BME280;28216;53.362;-6.288;2023-04-06T11:16:46;101416.16;;;13.92;100.00
42587;BME280;28216;53.362;-6.288;2023-04-06T11:19:13;101422.25;;;13.76;100.00
42587;BME280;28216;53.362;-6.288;2023-04-06T11:21:43;101424.38;;;13.64;100.00
42587;BME280;28216;53.362;-6.288;2023-04-06T11:24:14;101428.25;;;13.36;100.00
42587;BME280;28216;53.362;-6.288;2023-04-06T11:26:47;101441.69;;;13.17;100.00
42587;BME280;28216;53.362;-6.288;2023-04-06T11:29:25;101434.66;;;13.33;100.00
42587;BME280;28216;53.362;-6.288;2023-04-06T11:32:03;101425.53;;;13.70;100.00
42587;BME280;28216;53.362;-6.288;2023-04-06T11:34:30;101425.22;;;13.97;100.00
42587;BME280;28216;53.362;-6.288;2023-04-06T11:37:04;101434.94;;;13.97;100.00
42587;BME280;28216;53.362;-6.288;2023-04-06T11:39:38;101427.69;;;13.91;100.00
42587;BME280;28216;53.362;-6.288;2023-04-06T11:42:04;101437.22;;;13.59;100.00
42587;BME280;28216;53.362;-6.288;2023-04-06T11:44:42;101437.03;;;13.61;100.00
42587;BME280;28216;53.362;-6.288;2023-04-06T11:47:11;101430.66;;;13.88;100.00
42587;BME280;28216;53.362;-6.288;2023-04-06T11:49:38;101440.03;;;13.98;100.00
42587;BME280;28216;53.362;-6.288;2023-04-06T11:52:17;101443.00;;;14.12;100.00
42587;BME280;28216;53.362;-6.288;2023-04-06T11:54:43;101438.25;;;14.15;100.00
42587;BME280;28216;53.362;-6.288;2023-04-06T11:57:09;101433.63;;;14.25;100.00
42587;BME280;28216;53.362;-6.288;2023-04-06T11:59:35;101444.50;;;14.22;100.00
42587;BME280;28216;53.362;-6.288;2023-04-06T12:02:02;101450.91;;;14.36;100.00
42587;BME280;28216;53.362;-6.288;2023-04-06T12:04:28;101449.59;;;14.40;100.00
42587;BME280;28216;53.362;-6.288;2023-04-06T12:06:53;101445.97;;;14.49;100.00
42587;BME280;28216;53.362;-6.288;2023-04-06T12:09:18;101446.28;;;14.54;100.00
42587;BME280;28216;53.362;-6.288;2023-04-06T12:11:44;101452.56;;;14.53;100.00
42587;BME280;28216;53.362;-6.288;2023-04-06T12:14:11;101455.22;;;14.29;100.00
42587;BME280;28216;53.362;-6.288;2023-04-06T12:16:36;101451.59;;;14.22;100.00
42587;BME280;28216;53.362;-6.288;2023-04-06T12:19:02;101448.97;;;14.22;100.00
42587;BME280;28216;53.362;-6.288;2023-04-06T12:21:28;101451.25;;;14.41;100.00
42587;BME280;28216;53.362;-6.288;2023-04-06T12:23:54;101454.22;;;14.38;100.00
42587;BME280;28216;53.362;-6.288;2023-04-06T12:26:21;101452.91;;;14.50;100.00
42587;BME280;28216;53.362;-6.288;2023-04-06T12:28:46;101449.75;;;14.63;100.00
42587;BME280;28216;53.362;-6.288;2023-04-06T12:31:19;101455.19;;;14.61;100.00
42587;BME280;28216;53.362;-6.288;2023-04-06T12:33:49;101453.25;;;14.47;100.00
42587;BME280;28216;53.362;-6.288;2023-04-06T12:36:16;101448.13;;;14.54;100.00
42587;BME280;28216;53.362;-6.288;2023-04-06T12:38:50;101454.69;;;14.58;100.00
42587;BME280;28216;53.362;-6.288;2023-04-06T12:41:17;101445.47;;;14.54;100.00
42587;BME280;28216;53.362;-6.288;2023-04-06T12:43:43;101451.56;;;14.62;100.00